sensor_id;sensor_type;location;lat;lon;timestamp;P1;durP1;ratioP1;P2;durP2;ratioP2
34920;SDS011;21128;50.016;20.002;2022-10-16T00:01:53;17.23;;;10.63;;
34920;SDS011;21128;50.016;20.002;2022-10-16T00:04:20;17.27;;;11.50;;
34920;SDS011;21128;50.016;20.002;2022-10-16T00:06:49;19.27;;;9.77;;
34920;SDS011;21128;50.016;20.002;2022-10-16T00:09:16;14.25;;;10.80;;
34920;SDS011;21128;50.016;20.002;2022-10-16T00:11:56;18.70;;;9.93;;
34920;SDS011;21128;50.016;20.002;2022-10-16T00:14:23;15.90;;;9.53;;
34920;SDS011;21128;50.016;20.002;2022-10-16T00:16:50;13.70;;;9.30;;
34920;SDS011;21128;50.016;20.002;2022-10-16T00:19:16;16.55;;;9.93;;
34920;SDS011;21128;50.016;20.002;2022-10-16T00:21:43;16.93;;;11.00;;
34920;SDS011;21128;50.016;20.002;2022-10-16T00:24:10;18.63;;;11.87;;
34920;SDS011;21128;50.016;20.002;2022-10-16T00:26:38;21.90;;;13.10;;
34920;SDS011;21128;50.016;20.002;2022-10-16T00:29:06;26.20;;;14.77;;
34920;SDS011;21128;50.016;20.002;2022-10-16T00:31:33;22.27;;;17.33;;
34920;SDS011;21128;50.016;20.002;2022-10-16T00:34:01;27.27;;;20.13;;
34920;SDS011;21128;50.016;20.002;2022-10-16T00:36:28;32.97;;;22.27;;
34920;SDS011;21128;50.016;20.002;2022-10-16T00:38:56;28.33;;;17.63;;
34920;SDS011;21128;50.016;20.002;2022-10-16T00:41:24;18.90;;;13.80;;
34920;SDS011;21128;50.016;20.002;2022-10-16T00:43:53;20.93;;;13.50;;
34920;SDS011;21128;50.016;20.002;2022-10-16T00:46:23;23.05;;;15.95;;
34920;SDS011;21128;50.016;20.002;2022-10-16T00:48:56;17.97;;;14.57;;
34920;SDS011;21128;50.016;20.002;2022-10-16T00:51:29;17.93;;;14.20;;
34920;SDS011;21128;50.016;20.002;2022-10-16T00:54:02;22.57;;;13.90;;
34920;SDS011;21128;50.016;20.002;2022-10-16T00:56:35;19.20;;;13.77;;
34920;SDS011;21128;50.016;20.002;2022-10-16T00:59:03;21.07;;;15.17;;
34920;SDS011;21128;50.016;20.002;2022-10-16T01:01:38;26.50;;;16.03;;
34920;SDS011;21128;50.016;20.002;2022-10-16T01:04:05;21.67;;;16.10;;
34920;SDS011;21128;50.016;20.002;2022-10-16T01:15:14;23.25;;;14.10;;
34920;SDS011;21128;50.016;20.002;2022-10-16T01:17:55;18.53;;;14.03;;
34920;SDS011;21128;50.016;20.002;2022-10-16T01:20:33;18.02;;;13.00;;
34920;SDS011;21128;50.016;20.002;2022-10-16T01:23:28;20.70;;;13.33;;
34920;SDS011;21128;50.016;20.002;2022-10-16T01:29:21;17.27;;;12.97;;
34920;SDS011;21128;50.016;20.002;2022-10-16T01:31:59;23.87;;;12.83;;
34920;SDS011;21128;50.016;20.002;2022-10-16T01:34:31;17.83;;;13.00;;
34920;SDS011;21128;50.016;20.002;2022-10-16T01:37:05;21.03;;;13.07;;
34920;SDS011;21128;50.016;20.002;2022-10-16T01:39:38;18.77;;;12.60;;
34920;SDS011;21128;50.016;20.002;2022-10-16T01:42:09;16.53;;;12.77;;
34920;SDS011;21128;50.016;20.002;2022-10-16T01:44:42;17.17;;;13.03;;
34920;SDS011;21128;50.016;20.002;2022-10-16T01:47:12;23.73;;;14.10;;
34920;SDS011;21128;50.016;20.002;2022-10-16T01:49:41;18.10;;;13.95;;
34920;SDS011;21128;50.016;20.002;2022-10-16T01:52:13;17.13;;;13.30;;
34920;SDS011;21128;50.016;20.002;2022-10-16T01:54:44;17.67;;;12.68;;
34920;SDS011;21128;50.016;20.002;2022-10-16T01:57:14;20.77;;;12.40;;
34920;SDS011;21128;50.016;20.002;2022-10-16T01:59:44;20.23;;;12.83;;
34920;SDS011;21128;50.016;20.002;2022-10-16T02:02:15;18.90;;;13.07;;
34920;SDS011;21128;50.016;20.002;2022-10-16T02:04:45;18.13;;;12.70;;
34920;SDS011;21128;50.016;20.002;2022-10-16T02:07:28;16.07;;;12.20;;
34920;SDS011;21128;50.016;20.002;2022-10-16T02:09:55;21.17;;;13.90;;
34920;SDS011;21128;50.016;20.002;2022-10-16T02:12:30;16.70;;;12.77;;
34920;SDS011;21128;50.016;20.002;2022-10-16T02:14:59;18.53;;;13.60;;
34920;SDS011;21128;50.016;20.002;2022-10-16T02:17:26;16.77;;;13.70;;
34920;SDS011;21128;50.016;20.002;2022-10-16T02:19:54;21.27;;;12.20;;
34920;SDS011;21128;50.016;20.002;2022-10-16T02:22:39;17.60;;;12.23;;
34920;SDS011;21128;50.016;20.002;2022-10-16T02:25:15;17.83;;;10.90;;
34920;SDS011;21128;50.016;20.002;2022-10-16T02:27:57;15.90;;;10.35;;
34920;SDS011;21128;50.016;20.002;2022-10-16T02:30:36;16.17;;;10.67;;
34920;SDS011;21128;50.016;20.002;2022-10-16T02:33:10;14.60;;;10.07;;
34920;SDS011;21128;50.016;20.002;2022-10-16T02:35:43;16.55;;;9.68;;
34920;SDS011;21128;50.016;20.002;2022-10-16T02:38:13;19.47;;;10.60;;
34920;SDS011;21128;50.016;20.002;2022-10-16T02:40:41;18.80;;;10.20;;
34920;SDS011;21128;50.016;20.002;2022-10-16T02:43:09;12.53;;;10.07;;
34920;SDS011;21128;50.016;20.002;2022-10-16T02:45:37;11.90;;;9.25;;
34920;SDS011;21128;50.016;20.002;2022-10-16T02:48:04;11.67;;;8.40;;
34920;SDS011;21128;50.016;20.002;2022-10-16T02:50:31;18.07;;;9.33;;
34920;SDS011;21128;50.016;20.002;2022-10-16T02:52:58;12.93;;;9.60;;
34920;SDS011;21128;50.016;20.002;2022-10-16T02:55:25;12.43;;;9.80;;
34920;SDS011;21128;50.016;20.002;2022-10-16T02:57:54;14.40;;;9.50;;
34920;SDS011;21128;50.016;20.002;2022-10-16T03:00:27;17.73;;;11.10;;
34920;SDS011;21128;50.016;20.002;2022-10-16T03:02:54;20.47;;;10.53;;
34920;SDS011;21128;50.016;20.002;2022-10-16T03:05:21;15.78;;;11.03;;
34920;SDS011;21128;50.016;20.002;2022-10-16T03:07:48;17.47;;;11.40;;
34920;SDS011;21128;50.016;20.002;2022-10-16T03:10:15;18.30;;;11.80;;
34920;SDS011;21128;50.016;20.002;2022-10-16T03:12:55;17.05;;;10.30;;
34920;SDS011;21128;50.016;20.002;2022-10-16T03:15:22;15.13;;;10.60;;
34920;SDS011;21128;50.016;20.002;2022-10-16T03:17:49;22.30;;;10.77;;
34920;SDS011;21128;50.016;20.002;2022-10-16T03:20:15;15.25;;;9.53;;
34920;SDS011;21128;50.016;20.002;2022-10-16T03:22:42;16.27;;;9.20;;
34920;SDS011;21128;50.016;20.002;2022-10-16T03:25:09;13.70;;;9.83;;
34920;SDS011;21128;50.016;20.002;2022-10-16T03:27:36;13.70;;;9.30;;
34920;SDS011;21128;50.016;20.002;2022-10-16T03:30:03;13.87;;;9.77;;
34920;SDS011;21128;50.016;20.002;2022-10-16T03:32:30;13.43;;;10.50;;
34920;SDS011;21128;50.016;20.002;2022-10-16T03:34:57;14.25;;;9.88;;
34920;SDS011;21128;50.016;20.002;2022-10-16T03:37:31;21.43;;;11.67;;
34920;SDS011;21128;50.016;20.002;2022-10-16T03:39:57;18.23;;;11.20;;
34920;SDS011;21128;50.016;20.002;2022-10-16T03:42:38;17.97;;;11.60;;
34920;SDS011;21128;50.016;20.002;2022-10-16T03:45:11;16.37;;;11.47;;
34920;SDS011;21128;50.016;20.002;2022-10-16T03:47:52;20.40;;;12.37;;
34920;SDS011;21128;50.016;20.002;2022-10-16T03:50:25;15.37;;;12.17;;
34920;SDS011;21128;50.016;20.002;2022-10-16T03:52:52;15.33;;;11.87;;
34920;SDS011;21128;50.016;20.002;2022-10-16T03:55:32;17.00;;;11.53;;
34920;SDS011;21128;50.016;20.002;2022-10-16T03:58:05;17.97;;;10.53;;
34920;SDS011;21128;50.016;20.002;2022-10-16T04:00:45;20.13;;;10.70;;
34920;SDS011;21128;50.016;20.002;2022-10-16T04:03:14;18.45;;;11.35;;
34920;SDS011;21128;50.016;20.002;2022-10-16T04:05:49;18.47;;;12.27;;
34920;SDS011;21128;50.016;20.002;2022-10-16T04:08:29;20.30;;;11.10;;
34920;SDS011;21128;50.016;20.002;2022-10-16T04:11:16;18.63;;;11.00;;
34920;SDS011;21128;50.016;20.002;2022-10-16T04:13:49;19.77;;;11.70;;
34920;SDS011;21128;50.016;20.002;2022-10-16T04:16:22;13.20;;;10.70;;
34920;SDS011;21128;50.016;20.002;2022-10-16T04:19:02;16.23;;;10.70;;
34920;SDS011;21128;50.016;20.002;2022-10-16T04:21:36;15.55;;;11.15;;
34920;SDS011;21128;50.016;20.002;2022-10-16T04:24:16;16.33;;;10.67;;
34920;SDS011;21128;50.016;20.002;2022-10-16T04:26:43;15.23;;;11.00;;
34920;SDS011;21128;50.016;20.002;2022-10-16T04:29:16;19.43;;;10.20;;
34920;SDS011;21128;50.016;20.002;2022-10-16T04:31:56;19.87;;;11.77;;
34920;SDS011;21128;50.016;20.002;2022-10-16T04:34:23;17.83;;;11.50;;
34920;SDS011;21128;50.016;20.002;2022-10-16T04:36:56;17.80;;;10.70;;
34920;SDS011;21128;50.016;20.002;2022-10-16T04:39:36;25.45;;;11.35;;
34920;SDS011;21128;50.016;20.002;2022-10-16T04:42:03;17.37;;;10.67;;
34920;SDS011;21128;50.016;20.002;2022-10-16T04:44:36;23.07;;;10.83;;
34920;SDS011;21128;50.016;20.002;2022-10-16T04:47:16;18.25;;;11.25;;
34920;SDS011;21128;50.016;20.002;2022-10-16T04:49:43;14.13;;;10.27;;
34920;SDS011;21128;50.016;20.002;2022-10-16T04:52:17;30.50;;;12.07;;
34920;SDS011;21128;50.016;20.002;2022-10-16T04:54:57;24.37;;;11.90;;
34920;SDS011;21128;50.016;20.002;2022-10-16T04:57:34;29.77;;;12.00;;
34920;SDS011;21128;50.016;20.002;2022-10-16T05:00:14;17.93;;;10.83;;
34920;SDS011;21128;50.016;20.002;2022-10-16T05:02:41;20.20;;;10.45;;
34920;SDS011;21128;50.016;20.002;2022-10-16T05:05:15;17.25;;;10.50;;
34920;SDS011;21128;50.016;20.002;2022-10-16T05:07:55;17.83;;;11.83;;
34920;SDS011;21128;50.016;20.002;2022-10-16T05:10:28;19.93;;;10.60;;
34920;SDS011;21128;50.016;20.002;2022-10-16T05:12:55;19.87;;;11.03;;
34920;SDS011;21128;50.016;20.002;2022-10-16T05:15:35;18.83;;;11.10;;
34920;SDS011;21128;50.016;20.002;2022-10-16T05:18:02;19.05;;;11.00;;
34920;SDS011;21128;50.016;20.002;2022-10-16T05:20:36;37.50;;;21.67;;
34920;SDS011;21128;50.016;20.002;2022-10-16T05:23:16;33.03;;;22.90;;
34920;SDS011;21128;50.016;20.002;2022-10-16T05:25:43;32.60;;;15.63;;
34920;SDS011;21128;50.016;20.002;2022-10-16T05:28:16;22.13;;;11.87;;
34920;SDS011;21128;50.016;20.002;2022-10-16T05:30:56;16.43;;;10.33;;
34920;SDS011;21128;50.016;20.002;2022-10-16T05:33:24;16.10;;;11.05;;
34920;SDS011;21128;50.016;20.002;2022-10-16T05:36:12;24.25;;;11.35;;
34920;SDS011;21128;50.016;20.002;2022-10-16T05:38:39;14.53;;;10.60;;
34920;SDS011;21128;50.016;20.002;2022-10-16T05:41:13;22.33;;;12.10;;
34920;SDS011;21128;50.016;20.002;2022-10-16T05:43:47;20.17;;;11.80;;
34920;SDS011;21128;50.016;20.002;2022-10-16T05:46:27;16.87;;;11.27;;
34920;SDS011;21128;50.016;20.002;2022-10-16T05:49:08;18.90;;;11.77;;
34920;SDS011;21128;50.016;20.002;2022-10-16T05:51:35;18.80;;;10.70;;
34920;SDS011;21128;50.016;20.002;2022-10-16T05:54:08;19.10;;;12.20;;
34920;SDS011;21128;50.016;20.002;2022-10-16T05:56:49;25.13;;;15.30;;
34920;SDS011;21128;50.016;20.002;2022-10-16T05:59:16;24.77;;;16.83;;
34920;SDS011;21128;50.016;20.002;2022-10-16T06:01:49;22.87;;;11.53;;
34920;SDS011;21128;50.016;20.002;2022-10-16T06:04:16;19.37;;;11.33;;
34920;SDS011;21128;50.016;20.002;2022-10-16T06:09:27;15.43;;;10.67;;
34920;SDS011;21128;50.016;20.002;2022-10-16T06:17:13;19.05;;;9.70;;
34920;SDS011;21128;50.016;20.002;2022-10-16T06:19:41;16.95;;;9.00;;
34920;SDS011;21128;50.016;20.002;2022-10-16T06:22:08;16.63;;;10.00;;
34920;SDS011;21128;50.016;20.002;2022-10-16T06:24:43;16.77;;;9.27;;
34920;SDS011;21128;50.016;20.002;2022-10-16T06:27:23;17.43;;;10.53;;
34920;SDS011;21128;50.016;20.002;2022-10-16T06:29:50;20.93;;;10.57;;
34920;SDS011;21128;50.016;20.002;2022-10-16T06:32:23;19.93;;;10.73;;
34920;SDS011;21128;50.016;20.002;2022-10-16T06:34:50;14.45;;;10.45;;
34920;SDS011;21128;50.016;20.002;2022-10-16T06:37:24;21.37;;;11.37;;
34920;SDS011;21128;50.016;20.002;2022-10-16T06:39:58;22.25;;;10.63;;
34920;SDS011;21128;50.016;20.002;2022-10-16T06:42:27;25.70;;;11.00;;
34920;SDS011;21128;50.016;20.002;2022-10-16T06:44:54;19.83;;;10.50;;
34920;SDS011;21128;50.016;20.002;2022-10-16T06:47:28;12.20;;;9.90;;
34920;SDS011;21128;50.016;20.002;2022-10-16T06:50:08;16.90;;;11.05;;
34920;SDS011;21128;50.016;20.002;2022-10-16T06:52:35;18.80;;;11.37;;
34920;SDS011;21128;50.016;20.002;2022-10-16T06:55:15;19.10;;;11.53;;
34920;SDS011;21128;50.016;20.002;2022-10-16T06:57:43;33.37;;;19.50;;
34920;SDS011;21128;50.016;20.002;2022-10-16T07:00:12;19.47;;;14.17;;
34920;SDS011;21128;50.016;20.002;2022-10-16T07:02:39;19.65;;;12.60;;
34920;SDS011;21128;50.016;20.002;2022-10-16T07:05:06;16.53;;;11.60;;
34920;SDS011;21128;50.016;20.002;2022-10-16T07:07:33;18.87;;;11.80;;
34920;SDS011;21128;50.016;20.002;2022-10-16T07:10:00;18.75;;;11.73;;
34920;SDS011;21128;50.016;20.002;2022-10-16T07:12:33;16.47;;;11.93;;
34920;SDS011;21128;50.016;20.002;2022-10-16T07:15:00;20.37;;;13.20;;
34920;SDS011;21128;50.016;20.002;2022-10-16T07:17:47;19.80;;;12.87;;
34920;SDS011;21128;50.016;20.002;2022-10-16T07:20:14;20.77;;;14.10;;
34920;SDS011;21128;50.016;20.002;2022-10-16T07:22:48;20.03;;;13.70;;
34920;SDS011;21128;50.016;20.002;2022-10-16T07:25:21;19.73;;;13.40;;
34920;SDS011;21128;50.016;20.002;2022-10-16T07:27:55;21.05;;;12.82;;
34920;SDS011;21128;50.016;20.002;2022-10-16T07:30:23;23.17;;;12.97;;
34920;SDS011;21128;50.016;20.002;2022-10-16T07:32:57;25.57;;;14.73;;
34920;SDS011;21128;50.016;20.002;2022-10-16T07:35:23;21.73;;;14.90;;
34920;SDS011;21128;50.016;20.002;2022-10-16T07:38:03;19.07;;;13.57;;
34920;SDS011;21128;50.016;20.002;2022-10-16T07:40:30;23.83;;;15.17;;
34920;SDS011;21128;50.016;20.002;2022-10-16T07:42:57;23.43;;;14.40;;
34920;SDS011;21128;50.016;20.002;2022-10-16T07:45:31;23.27;;;13.40;;
34920;SDS011;21128;50.016;20.002;2022-10-16T07:47:58;16.80;;;13.33;;
34920;SDS011;21128;50.016;20.002;2022-10-16T07:50:31;18.93;;;13.60;;
34920;SDS011;21128;50.016;20.002;2022-10-16T07:53:05;23.05;;;14.53;;
34920;SDS011;21128;50.016;20.002;2022-10-16T07:55:32;20.43;;;14.27;;
34920;SDS011;21128;50.016;20.002;2022-10-16T07:58:06;18.20;;;13.27;;
34920;SDS011;21128;50.016;20.002;2022-10-16T08:00:46;19.40;;;14.10;;
34920;SDS011;21128;50.016;20.002;2022-10-16T08:03:13;20.10;;;13.50;;
34920;SDS011;21128;50.016;20.002;2022-10-16T08:05:46;18.30;;;13.25;;
34920;SDS011;21128;50.016;20.002;2022-10-16T08:08:26;23.17;;;14.23;;
34920;SDS011;21128;50.016;20.002;2022-10-16T08:11:07;19.83;;;13.63;;
34920;SDS011;21128;50.016;20.002;2022-10-16T08:13:41;20.93;;;14.63;;
34920;SDS011;21128;50.016;20.002;2022-10-16T08:16:21;18.77;;;13.47;;
34920;SDS011;21128;50.016;20.002;2022-10-16T08:18:49;21.60;;;14.00;;
34920;SDS011;21128;50.016;20.002;2022-10-16T08:21:23;17.40;;;13.37;;
34920;SDS011;21128;50.016;20.002;2022-10-16T08:24:03;22.90;;;14.37;;
34920;SDS011;21128;50.016;20.002;2022-10-16T08:26:30;18.40;;;13.47;;
34920;SDS011;21128;50.016;20.002;2022-10-16T08:29:03;25.70;;;14.40;;
34920;SDS011;21128;50.016;20.002;2022-10-16T08:31:43;21.67;;;13.43;;
34920;SDS011;21128;50.016;20.002;2022-10-16T08:34:16;20.30;;;13.90;;
34920;SDS011;21128;50.016;20.002;2022-10-16T08:36:56;21.63;;;12.90;;
34920;SDS011;21128;50.016;20.002;2022-10-16T08:39:23;18.57;;;13.27;;
34920;SDS011;21128;50.016;20.002;2022-10-16T08:42:16;21.57;;;14.73;;
34920;SDS011;21128;50.016;20.002;2022-10-16T08:50:52;23.13;;;13.13;;
34920;SDS011;21128;50.016;20.002;2022-10-16T08:56:18;18.43;;;12.53;;
34920;SDS011;21128;50.016;20.002;2022-10-16T08:58:45;16.03;;;11.73;;
34920;SDS011;21128;50.016;20.002;2022-10-16T09:01:20;18.23;;;10.77;;
34920;SDS011;21128;50.016;20.002;2022-10-16T09:04:12;16.57;;;11.60;;
34920;SDS011;21128;50.016;20.002;2022-10-16T09:12:37;16.30;;;10.93;;
34920;SDS011;21128;50.016;20.002;2022-10-16T09:18:09;13.22;;;9.80;;
34920;SDS011;21128;50.016;20.002;2022-10-16T09:23:32;13.73;;;9.43;;
34920;SDS011;21128;50.016;20.002;2022-10-16T09:26:02;15.37;;;9.70;;
34920;SDS011;21128;50.016;20.002;2022-10-16T09:28:31;15.57;;;8.50;;
34920;SDS011;21128;50.016;20.002;2022-10-16T09:30:58;14.78;;;9.40;;
34920;SDS011;21128;50.016;20.002;2022-10-16T09:33:27;16.67;;;9.30;;
34920;SDS011;21128;50.016;20.002;2022-10-16T09:35:59;13.77;;;9.27;;
34920;SDS011;21128;50.016;20.002;2022-10-16T09:38:30;13.43;;;7.40;;
34920;SDS011;21128;50.016;20.002;2022-10-16T09:41:00;15.20;;;8.07;;
34920;SDS011;21128;50.016;20.002;2022-10-16T09:46:03;8.75;;;6.10;;
34920;SDS011;21128;50.016;20.002;2022-10-16T09:48:36;19.30;;;6.80;;
34920;SDS011;21128;50.016;20.002;2022-10-16T09:51:06;8.00;;;5.60;;
34920;SDS011;21128;50.016;20.002;2022-10-16T09:53:47;6.47;;;4.80;;
34920;SDS011;21128;50.016;20.002;2022-10-16T09:56:33;7.10;;;5.77;;
34920;SDS011;21128;50.016;20.002;2022-10-16T09:59:08;9.60;;;5.70;;
34920;SDS011;21128;50.016;20.002;2022-10-16T10:01:39;10.83;;;5.27;;
34920;SDS011;21128;50.016;20.002;2022-10-16T10:04:08;7.83;;;5.07;;
34920;SDS011;21128;50.016;20.002;2022-10-16T10:06:51;6.10;;;4.97;;
34920;SDS011;21128;50.016;20.002;2022-10-16T10:09:22;6.83;;;5.10;;
34920;SDS011;21128;50.016;20.002;2022-10-16T10:12:01;9.95;;;5.20;;
34920;SDS011;21128;50.016;20.002;2022-10-16T10:14:36;6.10;;;5.20;;
34920;SDS011;21128;50.016;20.002;2022-10-16T10:17:17;9.73;;;5.40;;
34920;SDS011;21128;50.016;20.002;2022-10-16T10:22:41;8.37;;;5.20;;
34920;SDS011;21128;50.016;20.002;2022-10-16T10:28:06;9.10;;;5.63;;
34920;SDS011;21128;50.016;20.002;2022-10-16T10:30:42;12.27;;;5.80;;
34920;SDS011;21128;50.016;20.002;2022-10-16T10:33:23;7.58;;;5.22;;
34920;SDS011;21128;50.016;20.002;2022-10-16T10:39:13;10.80;;;5.10;;
34920;SDS011;21128;50.016;20.002;2022-10-16T10:52:38;9.63;;;5.23;;
34920;SDS011;21128;50.016;20.002;2022-10-16T11:00:37;5.65;;;4.67;;
34920;SDS011;21128;50.016;20.002;2022-10-16T11:08:27;7.93;;;4.90;;
34920;SDS011;21128;50.016;20.002;2022-10-16T11:11:05;8.03;;;5.30;;
34920;SDS011;21128;50.016;20.002;2022-10-16T11:16:27;9.00;;;5.40;;
34920;SDS011;21128;50.016;20.002;2022-10-16T11:21:47;6.50;;;4.67;;
34920;SDS011;21128;50.016;20.002;2022-10-16T11:24:49;8.33;;;5.20;;
34920;SDS011;21128;50.016;20.002;2022-10-16T11:27:23;9.20;;;5.60;;
34920;SDS011;21128;50.016;20.002;2022-10-16T11:30:03;9.07;;;5.07;;
34920;SDS011;21128;50.016;20.002;2022-10-16T11:32:50;7.53;;;4.67;;
34920;SDS011;21128;50.016;20.002;2022-10-16T11:35:32;9.13;;;4.40;;
34920;SDS011;21128;50.016;20.002;2022-10-16T11:38:12;7.47;;;5.37;;
34920;SDS011;21128;50.016;20.002;2022-10-16T11:40:48;6.17;;;4.70;;
34920;SDS011;21128;50.016;20.002;2022-10-16T11:43:43;10.97;;;4.23;;
34920;SDS011;21128;50.016;20.002;2022-10-16T11:46:27;6.77;;;5.03;;
34920;SDS011;21128;50.016;20.002;2022-10-16T11:49:08;7.57;;;4.77;;
34920;SDS011;21128;50.016;20.002;2022-10-16T11:57:14;6.70;;;4.70;;
34920;SDS011;21128;50.016;20.002;2022-10-16T11:59:55;5.93;;;4.60;;
34920;SDS011;21128;50.016;20.002;2022-10-16T12:02:44;6.45;;;4.50;;
34920;SDS011;21128;50.016;20.002;2022-10-16T12:08:14;9.97;;;4.40;;
34920;SDS011;21128;50.016;20.002;2022-10-16T12:10:51;8.77;;;4.93;;
34920;SDS011;21128;50.016;20.002;2022-10-16T12:13:38;7.43;;;4.53;;
34920;SDS011;21128;50.016;20.002;2022-10-16T12:18:40;6.15;;;4.35;;
34920;SDS011;21128;50.016;20.002;2022-10-16T12:21:18;7.30;;;4.77;;
34920;SDS011;21128;50.016;20.002;2022-10-16T12:24:04;7.20;;;4.30;;
34920;SDS011;21128;50.016;20.002;2022-10-16T12:26:44;6.70;;;4.63;;
34920;SDS011;21128;50.016;20.002;2022-10-16T12:31:47;8.00;;;4.20;;
34920;SDS011;21128;50.016;20.002;2022-10-16T12:34:31;9.60;;;4.97;;
34920;SDS011;21128;50.016;20.002;2022-10-16T12:37:11;8.43;;;4.13;;
34920;SDS011;21128;50.016;20.002;2022-10-16T12:39:48;5.33;;;4.27;;
34920;SDS011;21128;50.016;20.002;2022-10-16T12:44:56;8.47;;;5.30;;
34920;SDS011;21128;50.016;20.002;2022-10-16T12:50:22;6.43;;;4.40;;
34920;SDS011;21128;50.016;20.002;2022-10-16T12:53:23;7.57;;;4.30;;
34920;SDS011;21128;50.016;20.002;2022-10-16T13:17:04;7.17;;;3.97;;
34920;SDS011;21128;50.016;20.002;2022-10-16T13:22:35;8.05;;;3.25;;
34920;SDS011;21128;50.016;20.002;2022-10-16T13:25:37;5.47;;;4.50;;
34920;SDS011;21128;50.016;20.002;2022-10-16T13:28:41;5.17;;;4.00;;
34920;SDS011;21128;50.016;20.002;2022-10-16T13:31:14;6.23;;;4.10;;
34920;SDS011;21128;50.016;20.002;2022-10-16T13:33:47;5.40;;;4.10;;
34920;SDS011;21128;50.016;20.002;2022-10-16T13:36:35;6.10;;;4.43;;
34920;SDS011;21128;50.016;20.002;2022-10-16T13:44:30;8.68;;;4.22;;
34920;SDS011;21128;50.016;20.002;2022-10-16T13:47:03;7.53;;;4.00;;
34920;SDS011;21128;50.016;20.002;2022-10-16T13:49:36;5.20;;;4.03;;
34920;SDS011;21128;50.016;20.002;2022-10-16T13:52:18;5.25;;;4.45;;
34920;SDS011;21128;50.016;20.002;2022-10-16T13:54:53;11.90;;;4.27;;
34920;SDS011;21128;50.016;20.002;2022-10-16T13:57:22;7.20;;;4.03;;
34920;SDS011;21128;50.016;20.002;2022-10-16T13:59:50;5.83;;;4.47;;
34920;SDS011;21128;50.016;20.002;2022-10-16T14:02:22;7.15;;;4.40;;
34920;SDS011;21128;50.016;20.002;2022-10-16T14:04:51;6.93;;;4.80;;
34920;SDS011;21128;50.016;20.002;2022-10-16T14:07:25;7.13;;;4.03;;
34920;SDS011;21128;50.016;20.002;2022-10-16T14:10:05;11.50;;;4.43;;
34920;SDS011;21128;50.016;20.002;2022-10-16T14:12:44;8.05;;;3.60;;
34920;SDS011;21128;50.016;20.002;2022-10-16T14:15:15;4.67;;;3.57;;
34920;SDS011;21128;50.016;20.002;2022-10-16T14:17:45;7.23;;;3.47;;
34920;SDS011;21128;50.016;20.002;2022-10-16T14:20:16;5.70;;;3.73;;
34920;SDS011;21128;50.016;20.002;2022-10-16T14:22:57;7.37;;;3.67;;
34920;SDS011;21128;50.016;20.002;2022-10-16T14:25:30;3.97;;;3.53;;
34920;SDS011;21128;50.016;20.002;2022-10-16T14:30:51;11.18;;;3.80;;
34920;SDS011;21128;50.016;20.002;2022-10-16T14:36:01;5.27;;;3.50;;
34920;SDS011;21128;50.016;20.002;2022-10-16T14:38:31;8.03;;;5.07;;
34920;SDS011;21128;50.016;20.002;2022-10-16T14:40:59;5.10;;;3.50;;
34920;SDS011;21128;50.016;20.002;2022-10-16T14:43:32;6.63;;;3.13;;
34920;SDS011;21128;50.016;20.002;2022-10-16T14:46:09;11.57;;;3.73;;
34920;SDS011;21128;50.016;20.002;2022-10-16T14:48:42;4.90;;;3.87;;
34920;SDS011;21128;50.016;20.002;2022-10-16T14:51:16;9.83;;;4.03;;
34920;SDS011;21128;50.016;20.002;2022-10-16T14:53:50;4.83;;;3.40;;
34920;SDS011;21128;50.016;20.002;2022-10-16T14:56:19;6.90;;;3.10;;
34920;SDS011;21128;50.016;20.002;2022-10-16T14:58:52;7.80;;;3.80;;
34920;SDS011;21128;50.016;20.002;2022-10-16T15:01:20;4.97;;;3.50;;
34920;SDS011;21128;50.016;20.002;2022-10-16T15:03:47;10.28;;;3.95;;
34920;SDS011;21128;50.016;20.002;2022-10-16T15:06:23;5.67;;;4.47;;
34920;SDS011;21128;50.016;20.002;2022-10-16T15:08:56;6.13;;;4.00;;
34920;SDS011;21128;50.016;20.002;2022-10-16T15:11:23;9.53;;;4.30;;
34920;SDS011;21128;50.016;20.002;2022-10-16T15:13:57;9.33;;;4.37;;
34920;SDS011;21128;50.016;20.002;2022-10-16T15:16:24;9.30;;;4.00;;
34920;SDS011;21128;50.016;20.002;2022-10-16T15:19:04;6.03;;;4.30;;
34920;SDS011;21128;50.016;20.002;2022-10-16T15:21:32;6.35;;;4.60;;
34920;SDS011;21128;50.016;20.002;2022-10-16T15:24:08;9.83;;;4.27;;
34920;SDS011;21128;50.016;20.002;2022-10-16T15:26:44;6.87;;;4.13;;
34920;SDS011;21128;50.016;20.002;2022-10-16T15:29:12;7.47;;;4.57;;
34920;SDS011;21128;50.016;20.002;2022-10-16T15:31:52;6.83;;;5.23;;
34920;SDS011;21128;50.016;20.002;2022-10-16T15:34:26;8.60;;;5.13;;
34920;SDS011;21128;50.016;20.002;2022-10-16T15:37:06;6.30;;;4.57;;
34920;SDS011;21128;50.016;20.002;2022-10-16T15:39:35;8.27;;;4.40;;
34920;SDS011;21128;50.016;20.002;2022-10-16T15:42:09;9.20;;;5.77;;
34920;SDS011;21128;50.016;20.002;2022-10-16T15:44:48;11.23;;;7.00;;
34920;SDS011;21128;50.016;20.002;2022-10-16T15:47:16;11.57;;;5.70;;
34920;SDS011;21128;50.016;20.002;2022-10-16T15:49:49;11.20;;;5.03;;
34920;SDS011;21128;50.016;20.002;2022-10-16T15:52:29;6.73;;;5.37;;
34920;SDS011;21128;50.016;20.002;2022-10-16T15:54:58;11.77;;;5.60;;
34920;SDS011;21128;50.016;20.002;2022-10-16T15:57:31;7.50;;;5.43;;
34920;SDS011;21128;50.016;20.002;2022-10-16T16:00:15;8.93;;;5.60;;
34920;SDS011;21128;50.016;20.002;2022-10-16T16:02:48;14.57;;;5.50;;
34920;SDS011;21128;50.016;20.002;2022-10-16T16:05:24;10.23;;;6.40;;
34920;SDS011;21128;50.016;20.002;2022-10-16T16:08:03;17.27;;;7.03;;
34920;SDS011;21128;50.016;20.002;2022-10-16T16:13:04;13.65;;;6.60;;
34920;SDS011;21128;50.016;20.002;2022-10-16T16:15:43;10.85;;;6.25;;
34920;SDS011;21128;50.016;20.002;2022-10-16T16:18:10;10.57;;;6.00;;
34920;SDS011;21128;50.016;20.002;2022-10-16T16:20:57;9.97;;;6.23;;
34920;SDS011;21128;50.016;20.002;2022-10-16T16:23:24;9.23;;;6.40;;
34920;SDS011;21128;50.016;20.002;2022-10-16T16:28:40;14.77;;;10.40;;
34920;SDS011;21128;50.016;20.002;2022-10-16T16:31:14;20.33;;;8.07;;
34920;SDS011;21128;50.016;20.002;2022-10-16T16:33:54;11.50;;;7.80;;
34920;SDS011;21128;50.016;20.002;2022-10-16T16:36:30;12.53;;;7.47;;
34920;SDS011;21128;50.016;20.002;2022-10-16T16:38:58;16.60;;;7.93;;
34920;SDS011;21128;50.016;20.002;2022-10-16T16:41:38;12.83;;;7.20;;
34920;SDS011;21128;50.016;20.002;2022-10-16T16:44:06;11.27;;;7.77;;
34920;SDS011;21128;50.016;20.002;2022-10-16T16:46:35;11.77;;;7.33;;
34920;SDS011;21128;50.016;20.002;2022-10-16T16:49:09;13.17;;;7.57;;
34920;SDS011;21128;50.016;20.002;2022-10-16T16:51:45;11.23;;;8.50;;
34920;SDS011;21128;50.016;20.002;2022-10-16T16:54:18;17.42;;;8.15;;
34920;SDS011;21128;50.016;20.002;2022-10-16T16:56:45;24.63;;;8.67;;
34920;SDS011;21128;50.016;20.002;2022-10-16T16:59:19;18.60;;;8.47;;
34920;SDS011;21128;50.016;20.002;2022-10-16T17:02:00;13.40;;;7.77;;
34920;SDS011;21128;50.016;20.002;2022-10-16T17:04:29;15.57;;;8.37;;
34920;SDS011;21128;50.016;20.002;2022-10-16T17:07:02;13.40;;;8.97;;
34920;SDS011;21128;50.016;20.002;2022-10-16T17:09:42;18.50;;;9.00;;
34920;SDS011;21128;50.016;20.002;2022-10-16T17:12:09;13.00;;;8.23;;
34920;SDS011;21128;50.016;20.002;2022-10-16T17:14:42;16.37;;;9.50;;